Time;durP1;ratioP1;P1;durP2;ratioP2;P2;SDS_P1;SDS_P2;PMS_P1;PMS_P2;Temp;Humidity;BMP_temperature;BMP_pressure;BME280_temperature;BME280_humidity;BME280_pressure;Samples;Min_cycle;Max_cycle;Signal;HPM_P1;HPM_P2
2024/02/11 00:02:12;;;;;;;28.80;22.48;;;10.30;99.90;;;;;;4926913;28;20031;-77
2024/02/11 00:04:40;;;;;;;28.98;23.60;;;10.30;99.90;;;;;;4944164;28;20402;-76
2024/02/11 00:07:08;;;;;;;29.58;23.90;;;10.30;99.90;;;;;;4939713;28;20403;-76
2024/02/11 00:09:34;;;;;;;32.30;26.25;;;10.30;99.90;;;;;;4928973;28;20034;-77
2024/02/11 00:12:00;;;;;;;31.45;24.63;;;10.30;99.90;;;;;;4960196;28;20054;-75
2024/02/11 00:14:27;;;;;;;28.88;23.55;;;10.30;99.90;;;;;;4945942;28;20035;-77
2024/02/11 00:16:59;;;;;;;25.02;22.30;;;10.30;99.90;;;;;;4961496;28;20043;-76
2024/02/11 00:19:27;;;;;;;32.88;26.85;;;10.30;99.90;;;;;;4976246;28;21024;-76
2024/02/11 00:21:53;;;;;;;32.95;26.83;;;10.30;99.90;;;;;;4959656;28;20035;-77
2024/02/11 00:24:19;;;;;;;30.65;25.25;;;10.30;99.90;;;;;;4945671;28;20382;-78
2024/02/11 00:26:46;;;;;;;31.27;25.88;;;10.30;99.90;;;;;;4960974;28;20259;-74
2024/02/11 00:29:12;;;;;;;28.95;24.27;;;10.30;99.90;;;;;;4926772;28;20042;-77
2024/02/11 00:31:38;;;;;;;24.17;21.45;;;10.40;99.90;;;;;;4929527;28;20039;-76
2024/02/11 00:34:05;;;;;;;28.05;23.67;;;10.30;99.90;;;;;;4930096;28;20062;-77
2024/02/11 00:36:33;;;;;;;25.83;20.98;;;10.40;99.90;;;;;;4944476;28;20336;-76
2024/02/11 00:39:00;;;;;;;25.77;21.13;;;10.30;99.90;;;;;;4930106;28;20035;-78
2024/02/11 00:41:28;;;;;;;29.30;21.67;;;10.40;99.90;;;;;;4944337;28;20042;-77
2024/02/11 00:43:55;;;;;;;28.10;23.33;;;10.40;99.90;;;;;;4973749;28;20491;-75
2024/02/11 00:46:22;;;;;;;31.35;25.10;;;10.40;99.90;;;;;;4941145;28;20509;-77
2024/02/11 00:48:48;;;;;;;25.63;22.45;;;10.40;99.90;;;;;;4929428;28;20112;-78
2024/02/11 00:51:14;;;;;;;28.40;23.20;;;10.30;99.90;;;;;;4959498;28;20038;-78
2024/02/11 00:53:41;;;;;;;26.13;20.95;;;10.40;99.90;;;;;;4959945;28;20031;-77
2024/02/11 00:56:08;;;;;;;31.67;25.50;;;10.40;99.90;;;;;;4939796;28;20039;-76
2024/02/11 00:58:34;;;;;;;29.27;24.77;;;10.40;99.90;;;;;;4929988;28;20051;-78
2024/02/11 01:01:04;;;;;;;27.42;23.92;;;10.40;99.90;;;;;;4944249;28;20044;-78
2024/02/11 01:03:31;;;;;;;28.95;24.65;;;10.40;99.90;;;;;;4958184;28;20035;-77
2024/02/11 01:05:58;;;;;;;28.00;23.15;;;10.30;99.90;;;;;;4941699;28;20046;-79
2024/02/11 01:08:25;;;;;;;26.10;23.27;;;10.30;99.90;;;;;;4928546;28;20475;-78
2024/02/11 01:10:52;;;;;;;24.58;21.85;;;10.30;99.90;;;;;;4928619;29;20035;-77
2024/02/11 01:13:18;;;;;;;24.40;21.70;;;10.30;99.90;;;;;;4959750;28;20062;-76
2024/02/11 01:15:46;;;;;;;27.95;23.67;;;10.30;99.90;;;;;;4959561;28;20034;-76
2024/02/11 01:18:13;;;;;;;27.75;23.40;;;10.30;99.90;;;;;;4958448;28;20046;-76
2024/02/11 01:20:39;;;;;;;28.15;24.10;;;10.30;99.90;;;;;;4948743;28;20043;-78
2024/02/11 01:23:06;;;;;;;23.95;21.35;;;10.30;99.90;;;;;;4947005;28;20804;-78
2024/02/11 01:25:32;;;;;;;28.08;23.52;;;10.30;99.90;;;;;;4947528;28;20145;-75
2024/02/11 01:27:59;;;;;;;24.25;21.10;;;10.30;99.90;;;;;;4933794;28;20505;-77
2024/02/11 01:30:25;;;;;;;21.73;19.50;;;10.30;99.90;;;;;;4963393;28;20042;-78
2024/02/11 01:32:53;;;;;;;21.35;19.08;;;10.30;99.90;;;;;;4947745;28;20699;-78
2024/02/11 01:35:20;;;;;;;26.85;22.75;;;10.30;99.90;;;;;;4961650;28;20075;-77
2024/02/11 01:37:47;;;;;;;26.92;23.85;;;10.20;99.90;;;;;;4948131;28;20035;-75
2024/02/11 01:40:19;;;;;;;25.83;22.85;;;10.20;99.90;;;;;;4962636;28;20036;-77
2024/02/11 01:42:46;;;;;;;27.58;23.75;;;10.20;99.90;;;;;;4963259;28;20028;-78
2024/02/11 01:45:14;;;;;;;27.70;24.05;;;10.20;99.90;;;;;;4963396;28;20406;-76
2024/02/11 01:47:43;;;;;;;29.60;23.10;;;10.20;99.90;;;;;;4932562;29;20778;-78
2024/02/11 01:50:13;;;;;;;24.92;21.42;;;10.20;99.90;;;;;;4945607;28;20644;-77
2024/02/11 01:52:41;;;;;;;21.85;19.48;;;10.20;99.90;;;;;;4961659;28;20418;-77
2024/02/11 01:55:12;;;;;;;27.05;23.20;;;10.20;99.90;;;;;;4948719;28;20478;-76
2024/02/11 01:57:42;;;;;;;27.00;23.15;;;10.20;99.90;;;;;;4964137;28;20054;-76
2024/02/11 02:00:10;;;;;;;26.77;23.70;;;10.10;99.90;;;;;;4932264;28;20471;-76
2024/02/11 02:02:37;;;;;;;30.77;26.80;;;10.10;99.90;;;;;;4964245;28;20039;-77
2024/02/11 02:05:07;;;;;;;27.23;24.27;;;10.10;99.90;;;;;;4964395;28;20055;-75
2024/02/11 02:07:34;;;;;;;26.92;24.00;;;10.10;99.90;;;;;;4963710;28;20043;-77
2024/02/11 02:10:00;;;;;;;25.48;22.67;;;10.10;99.90;;;;;;4933226;28;20051;-77
2024/02/11 02:12:28;;;;;;;27.88;24.40;;;10.10;99.90;;;;;;4947988;28;20057;-77
2024/02/11 02:14:54;;;;;;;31.92;26.35;;;10.10;99.90;;;;;;4947944;28;20574;-77
2024/02/11 02:17:20;;;;;;;26.83;23.92;;;10.00;99.90;;;;;;4963758;28;20043;-75
2024/02/11 02:19:47;;;;;;;28.63;25.52;;;10.10;99.90;;;;;;4933124;28;20983;-75
2024/02/11 02:22:13;;;;;;;30.92;26.83;;;10.00;99.90;;;;;;4960613;28;20055;-75
2024/02/11 02:24:40;;;;;;;29.42;24.98;;;10.00;99.90;;;;;;4931880;28;20081;-74
2024/02/11 02:27:06;;;;;;;29.95;26.73;;;10.00;99.90;;;;;;4931680;28;20442;-77
2024/02/11 02:29:33;;;;;;;31.15;25.98;;;10.00;99.90;;;;;;4948437;28;20408;-77
2024/02/11 02:31:59;;;;;;;32.72;27.92;;;10.00;99.90;;;;;;4964640;28;20491;-77
2024/02/11 02:34:27;;;;;;;35.20;30.23;;;10.00;99.90;;;;;;4933890;28;20035;-78
2024/02/11 02:36:54;;;;;;;29.55;25.02;;;10.00;99.90;;;;;;4946304;28;20035;-77
2024/02/11 02:39:22;;;;;;;25.77;21.98;;;10.00;99.90;;;;;;4948780;28;20039;-75
2024/02/11 02:41:48;;;;;;;26.67;22.13;;;10.00;99.90;;;;;;4966846;28;20035;-78
2024/02/11 02:44:15;;;;;;;28.80;25.70;;;9.90;99.90;;;;;;4948886;28;20050;-75
2024/02/11 02:46:41;;;;;;;25.17;21.73;;;10.00;99.90;;;;;;4934587;28;21637;-77
2024/02/11 02:49:07;;;;;;;31.95;24.90;;;10.00;99.90;;;;;;4965201;28;20063;-77
2024/02/11 02:51:34;;;;;;;29.38;25.23;;;10.00;99.90;;;;;;4981305;28;20027;-78
2024/02/11 02:54:02;;;;;;;33.08;27.27;;;10.00;99.90;;;;;;4948727;28;20039;-78
2024/02/11 02:56:31;;;;;;;29.48;26.27;;;10.00;99.90;;;;;;4949858;28;20043;-79
2024/02/11 02:58:58;;;;;;;29.52;25.70;;;10.10;99.90;;;;;;4947330;28;20047;-76
2024/02/11 03:01:28;;;;;;;31.23;27.23;;;10.10;99.90;;;;;;4964768;28;20028;-77
2024/02/11 03:04:00;;;;;;;36.22;30.38;;;10.10;99.90;;;;;;4964401;28;20372;-78
2024/02/11 03:06:26;;;;;;;32.75;27.15;;;10.10;99.90;;;;;;4996059;28;20047;-78
2024/02/11 03:08:52;;;;;;;28.75;25.13;;;10.10;99.90;;;;;;4948703;28;20039;-78
2024/02/11 03:11:19;;;;;;;29.75;26.50;;;10.00;99.90;;;;;;4964328;28;20043;-78
2024/02/11 03:13:45;;;;;;;27.17;24.00;;;10.10;99.90;;;;;;4963513;28;20039;-78
2024/02/11 03:16:15;;;;;;;28.65;24.17;;;10.00;99.90;;;;;;4948590;28;20051;-78
2024/02/11 03:18:42;;;;;;;23.63;21.13;;;10.00;99.90;;;;;;4965150;28;20518;-78
2024/02/11 03:21:09;;;;;;;30.02;26.73;;;10.00;99.90;;;;;;4947335;28;20039;-75
2024/02/11 03:23:37;;;;;;;27.38;23.25;;;10.00;99.90;;;;;;4928404;28;20034;-78
2024/02/11 03:26:09;;;;;;;32.00;26.83;;;10.00;99.90;;;;;;4949619;28;20034;-78
2024/02/11 03:28:40;;;;;;;29.25;24.70;;;10.00;99.90;;;;;;4950045;28;20035;-78
2024/02/11 03:31:07;;;;;;;29.77;25.80;;;9.90;99.90;;;;;;4950394;28;20042;-76
2024/02/11 03:33:34;;;;;;;30.55;26.45;;;9.90;99.90;;;;;;4917840;28;20062;-75
2024/02/11 03:36:02;;;;;;;34.22;26.92;;;10.00;99.90;;;;;;4978946;28;20027;-78
2024/02/11 03:38:29;;;;;;;29.65;23.58;;;9.90;99.90;;;;;;4947734;28;20035;-78
2024/02/11 03:40:56;;;;;;;32.42;26.70;;;9.90;99.90;;;;;;4947510;28;20049;-77
2024/02/11 03:43:23;;;;;;;31.30;25.75;;;9.90;99.90;;;;;;4946102;28;20031;-75
2024/02/11 03:45:50;;;;;;;33.30;28.17;;;9.90;99.90;;;;;;4932580;28;20043;-78
2024/02/11 03:48:20;;;;;;;31.25;26.95;;;9.90;99.90;;;;;;4933646;28;20043;-75
2024/02/11 03:50:46;;;;;;;30.00;25.30;;;9.90;99.90;;;;;;4969585;28;20035;-77
2024/02/11 03:53:20;;;;;;;32.45;27.55;;;9.90;99.90;;;;;;4952959;28;20718;-75
2024/02/11 03:55:47;;;;;;;32.97;28.73;;;9.90;99.90;;;;;;4947836;28;20039;-77
2024/02/11 03:58:14;;;;;;;35.67;29.60;;;9.90;99.90;;;;;;4931148;28;20507;-77
2024/02/11 04:00:44;;;;;;;39.25;32.58;;;9.90;99.90;;;;;;4932104;28;20039;-74
2024/02/11 04:03:15;;;;;;;32.63;28.42;;;9.90;99.90;;;;;;4945162;28;20031;-78
2024/02/11 04:05:43;;;;;;;38.50;31.35;;;9.90;99.90;;;;;;4932034;28;20031;-78
2024/02/11 04:08:11;;;;;;;32.55;27.52;;;9.90;99.90;;;;;;4964528;28;20063;-77
2024/02/11 04:10:39;;;;;;;28.13;24.20;;;9.90;99.90;;;;;;4948143;28;20028;-78
2024/02/11 04:13:09;;;;;;;25.88;22.42;;;9.80;99.90;;;;;;4946151;28;20043;-77
2024/02/11 04:15:37;;;;;;;26.77;22.48;;;9.90;99.90;;;;;;4963529;28;20035;-78
2024/02/11 04:18:07;;;;;;;37.22;29.77;;;9.80;99.90;;;;;;4980593;28;20042;-78
2024/02/11 04:20:34;;;;;;;31.85;27.25;;;9.80;99.90;;;;;;4978993;28;20043;-78
2024/02/11 04:23:00;;;;;;;32.05;24.98;;;9.80;99.90;;;;;;4932453;28;20050;-80
2024/02/11 04:25:34;;;;;;;30.98;26.02;;;9.80;99.90;;;;;;4945543;28;20046;-77
2024/02/11 04:28:07;;;;;;;35.75;28.17;;;9.80;99.90;;;;;;4946915;28;20503;-77
2024/02/11 04:30:37;;;;;;;33.60;26.85;;;9.80;99.90;;;;;;4963479;28;20031;-77
2024/02/11 04:33:04;;;;;;;32.17;24.83;;;9.80;99.90;;;;;;4963088;28;20050;-75
2024/02/11 04:35:31;;;;;;;32.30;25.73;;;9.80;99.90;;;;;;4961684;28;20054;-77
2024/02/11 04:37:59;;;;;;;27.73;23.10;;;9.80;99.90;;;;;;4962177;28;20046;-76
2024/02/11 04:40:26;;;;;;;31.95;25.88;;;9.80;99.90;;;;;;4964404;28;20043;-76
2024/02/11 04:42:56;;;;;;;32.75;26.25;;;9.80;99.90;;;;;;4932899;28;20024;-78
2024/02/11 04:45:23;;;;;;;31.10;25.70;;;9.70;99.90;;;;;;4932495;28;20063;-76
2024/02/11 04:47:54;;;;;;;31.38;25.38;;;9.70;99.90;;;;;;4945549;28;20035;-78
2024/02/11 04:50:25;;;;;;;30.45;24.45;;;9.70;99.90;;;;;;4933423;28;20035;-79
2024/02/11 04:52:56;;;;;;;37.17;29.67;;;9.70;99.90;;;;;;4950157;28;20054;-78
2024/02/11 04:55:38;;;;;;;27.33;22.65;;;9.60;99.90;;;;;;4983825;28;20109;-78
2024/02/11 04:58:13;;;;;;;32.42;26.70;;;9.60;99.90;;;;;;4938151;28;20047;-78
2024/02/11 05:00:40;;;;;;;32.13;26.30;;;9.60;99.90;;;;;;4966742;28;20124;-76
2024/02/11 05:03:07;;;;;;;32.92;27.55;;;9.60;99.90;;;;;;4950364;28;20031;-77
2024/02/11 05:05:36;;;;;;;32.05;24.73;;;9.60;99.90;;;;;;4935401;28;20522;-79
2024/02/11 05:08:07;;;;;;;37.97;29.42;;;9.60;99.90;;;;;;4983346;28;20419;-78
2024/02/11 05:10:39;;;;;;;28.98;23.98;;;9.60;99.90;;;;;;4936549;28;20039;-78
2024/02/11 05:13:06;;;;;;;30.67;24.63;;;9.60;99.90;;;;;;4951639;28;20066;-76
2024/02/11 05:15:38;;;;;;;28.17;24.13;;;9.60;99.90;;;;;;4935242;28;20050;-78
2024/02/11 05:18:05;;;;;;;28.70;24.08;;;9.70;99.90;;;;;;4966218;28;20327;-78
2024/02/11 05:20:32;;;;;;;35.25;27.02;;;9.70;99.90;;;;;;4966990;28;20034;-79
2024/02/11 05:22:59;;;;;;;31.65;23.67;;;9.70;99.90;;;;;;4967438;28;20038;-79
2024/02/11 05:25:26;;;;;;;29.75;23.85;;;9.70;99.90;;;;;;4935715;28;20166;-75
2024/02/11 05:28:04;;;;;;;30.52;23.80;;;9.70;99.90;;;;;;4936504;28;20031;-78
2024/02/11 05:30:37;;;;;;;35.20;25.95;;;9.70;99.90;;;;;;4951321;28;20047;-78
2024/02/11 05:33:04;;;;;;;36.80;29.55;;;9.70;99.90;;;;;;4949990;28;20031;-78
2024/02/11 05:35:36;;;;;;;35.35;27.17;;;9.70;99.90;;;;;;4981641;28;20585;-77
2024/02/11 05:38:06;;;;;;;32.40;26.42;;;9.70;99.90;;;;;;4981088;28;20035;-77
2024/02/11 05:40:43;;;;;;;32.17;25.63;;;9.80;99.90;;;;;;4964408;28;20035;-77
2024/02/11 05:43:15;;;;;;;29.80;23.88;;;9.70;99.90;;;;;;4934796;28;20032;-77
2024/02/11 05:45:42;;;;;;;33.60;26.15;;;9.80;99.90;;;;;;4966542;28;20260;-76
2024/02/11 05:48:09;;;;;;;31.65;24.52;;;9.80;99.90;;;;;;4966683;28;20035;-79
2024/02/11 05:50:36;;;;;;;31.00;24.52;;;9.70;99.90;;;;;;4965746;28;20354;-77
2024/02/11 05:53:04;;;;;;;33.75;26.75;;;9.80;99.90;;;;;;4965745;28;20058;-75
2024/02/11 05:55:31;;;;;;;33.85;24.63;;;9.80;99.90;;;;;;4935380;28;20043;-78
2024/02/11 05:57:58;;;;;;;32.50;24.85;;;9.80;99.90;;;;;;4967115;28;20043;-78
2024/02/11 06:00:31;;;;;;;34.47;26.70;;;9.80;99.90;;;;;;4997480;28;20526;-79
2024/02/11 06:02:58;;;;;;;34.95;27.30;;;9.80;99.90;;;;;;4965312;28;20046;-78
2024/02/11 06:05:25;;;;;;;36.85;28.02;;;9.80;99.90;;;;;;4963382;28;20515;-79
2024/02/11 06:07:59;;;;;;;41.45;30.92;;;9.80;99.90;;;;;;4950718;28;20046;-78
2024/02/11 06:10:29;;;;;;;35.95;26.58;;;9.80;99.90;;;;;;4950578;28;20523;-79
2024/02/11 06:12:57;;;;;;;33.90;26.30;;;9.80;99.90;;;;;;4949336;28;20043;-79
2024/02/11 06:15:24;;;;;;;31.27;24.70;;;9.80;99.90;;;;;;4950611;28;20509;-79
2024/02/11 06:17:52;;;;;;;31.80;24.42;;;9.90;99.90;;;;;;4950997;28;20031;-76
2024/02/11 06:20:20;;;;;;;31.92;24.40;;;9.90;99.90;;;;;;4966652;28;20046;-76
2024/02/11 06:22:49;;;;;;;34.95;24.70;;;9.90;99.90;;;;;;4967070;28;20506;-78
2024/02/11 06:25:19;;;;;;;34.22;25.38;;;9.90;99.90;;;;;;4952107;28;20035;-79
2024/02/11 06:27:46;;;;;;;37.17;27.75;;;10.00;99.90;;;;;;4982180;28;20047;-78
2024/02/11 06:30:12;;;;;;;36.40;25.73;;;9.90;99.90;;;;;;4935546;28;20035;-76
2024/02/11 06:32:40;;;;;;;36.90;25.63;;;10.00;99.90;;;;;;4950192;28;20046;-78
2024/02/11 06:35:09;;;;;;;38.67;28.92;;;10.00;99.90;;;;;;4951347;28;20525;-78
2024/02/11 06:37:38;;;;;;;40.42;28.65;;;10.00;99.90;;;;;;4965271;28;20027;-77
2024/02/11 06:40:12;;;;;;;44.78;31.75;;;10.00;99.90;;;;;;4963990;28;20521;-77
2024/02/11 06:42:39;;;;;;;52.15;35.13;;;10.00;99.90;;;;;;4947513;28;20046;-78
2024/02/11 06:45:08;;;;;;;45.63;33.35;;;10.00;99.90;;;;;;4933843;28;20403;-78
2024/02/11 06:47:38;;;;;;;45.38;32.97;;;10.00;99.90;;;;;;4949624;28;20040;-78
2024/02/11 06:50:08;;;;;;;56.53;38.50;;;10.00;99.90;;;;;;4933356;28;20043;-77
2024/02/11 06:52:35;;;;;;;46.03;32.63;;;10.00;99.90;;;;;;4963521;28;20035;-79
2024/02/11 06:55:02;;;;;;;34.80;25.55;;;9.90;99.90;;;;;;4963624;28;20459;-80
2024/02/11 06:57:30;;;;;;;27.00;18.10;;;9.90;99.90;;;;;;4962880;28;20043;-78
2024/02/11 06:59:59;;;;;;;19.92;14.30;;;9.80;99.90;;;;;;4949637;28;20086;-79
2024/02/11 07:02:25;;;;;;;21.20;15.10;;;9.70;99.90;;;;;;4963063;28;20048;-80
2024/02/11 07:04:55;;;;;;;17.67;13.57;;;9.60;99.90;;;;;;4949642;28;20038;-81
2024/02/11 07:07:22;;;;;;;20.63;14.50;;;9.60;99.90;;;;;;4965217;28;20046;-77
2024/02/11 07:09:48;;;;;;;21.60;13.55;;;9.60;99.90;;;;;;4949400;28;20727;-79
2024/02/11 07:12:17;;;;;;;19.00;12.18;;;9.50;99.90;;;;;;4964860;28;20051;-79
2024/02/11 07:14:45;;;;;;;22.85;14.98;;;9.40;99.90;;;;;;4963730;28;20490;-80
2024/02/11 07:17:14;;;;;;;31.45;19.08;;;9.40;99.90;;;;;;4963603;28;20048;-80
2024/02/11 07:19:41;;;;;;;30.25;19.05;;;9.40;99.90;;;;;;4963226;28;20038;-79
2024/02/11 07:22:08;;;;;;;36.00;20.75;;;9.30;99.90;;;;;;4932630;28;20505;-79
2024/02/11 07:24:35;;;;;;;32.70;21.58;;;9.30;99.90;;;;;;4981768;28;20036;-80
2024/02/11 07:27:06;;;;;;;29.92;19.17;;;9.20;99.90;;;;;;4961970;28;20502;-77
2024/02/11 07:29:33;;;;;;;34.28;20.58;;;9.20;99.90;;;;;;4965255;28;20049;-80
2024/02/11 07:31:59;;;;;;;43.35;26.33;;;9.20;99.90;;;;;;4933240;28;20288;-77
2024/02/11 07:34:29;;;;;;;43.45;26.77;;;9.10;99.90;;;;;;4978134;28;20043;-76
2024/02/11 07:36:59;;;;;;;46.13;28.23;;;9.10;99.90;;;;;;4964730;28;20026;-78
2024/02/11 07:39:25;;;;;;;41.53;26.00;;;9.00;99.90;;;;;;4964645;28;20038;-79
2024/02/11 07:41:52;;;;;;;50.33;28.13;;;9.00;99.90;;;;;;4946539;28;20345;-78
2024/02/11 07:44:18;;;;;;;47.50;26.73;;;9.00;99.90;;;;;;4947537;28;20054;-80
2024/02/11 07:46:44;;;;;;;41.50;24.45;;;8.90;99.90;;;;;;4947942;28;20042;-77
2024/02/11 07:49:13;;;;;;;55.67;29.40;;;8.90;99.90;;;;;;4950240;28;20487;-79
2024/02/11 07:51:44;;;;;;;44.33;25.10;;;8.90;99.90;;;;;;4931366;28;20390;-79
2024/02/11 07:54:11;;;;;;;54.00;27.88;;;8.80;99.90;;;;;;4961763;28;20039;-77
2024/02/11 07:56:38;;;;;;;57.08;29.73;;;8.80;99.90;;;;;;4964013;28;20379;-76
2024/02/11 07:59:06;;;;;;;55.58;28.42;;;8.80;99.90;;;;;;4962513;28;20039;-79
2024/02/11 08:01:33;;;;;;;51.17;27.48;;;8.80;99.90;;;;;;4962571;28;20031;-78
2024/02/11 08:04:03;;;;;;;50.40;25.60;;;8.80;99.90;;;;;;4931793;28;20376;-79
2024/02/11 08:06:30;;;;;;;50.15;24.35;;;8.80;99.90;;;;;;4960546;28;20043;-78
2024/02/11 08:08:56;;;;;;;56.60;25.65;;;8.80;99.90;;;;;;4963178;28;20399;-79
2024/02/11 08:11:23;;;;;;;56.40;25.45;;;8.80;99.90;;;;;;4931402;28;20047;-81
2024/02/11 08:13:54;;;;;;;71.25;30.77;;;8.80;99.90;;;;;;4977966;28;20054;-75
2024/02/11 08:16:22;;;;;;;54.90;24.83;;;8.80;99.90;;;;;;4963296;28;20322;-77
2024/02/11 08:18:54;;;;;;;60.35;25.80;;;8.80;99.90;;;;;;4979974;28;20039;-78
2024/02/11 08:21:21;;;;;;;51.65;21.25;;;8.80;99.90;;;;;;4962770;28;21472;-82
2024/02/11 08:23:48;;;;;;;54.80;23.80;;;8.80;99.90;;;;;;4947554;28;20483;-80
2024/02/11 08:26:15;;;;;;;50.20;21.10;;;8.80;99.90;;;;;;4963886;28;20047;-76
2024/02/11 08:28:41;;;;;;;39.83;17.33;;;8.70;99.90;;;;;;4946830;28;21145;-79
2024/02/11 08:31:07;;;;;;;46.85;19.08;;;8.70;99.90;;;;;;4962618;28;20035;-79
2024/02/11 08:33:34;;;;;;;41.08;16.95;;;8.80;99.90;;;;;;4932311;28;20360;-80
2024/02/11 08:36:01;;;;;;;47.53;18.55;;;8.70;99.90;;;;;;4963171;28;20031;-79
2024/02/11 08:38:28;;;;;;;41.85;17.27;;;8.80;99.90;;;;;;4945977;28;20035;-80
2024/02/11 08:40:54;;;;;;;40.97;16.52;;;8.80;99.90;;;;;;4931335;28;20090;-79
2024/02/11 08:43:20;;;;;;;39.67;15.10;;;8.80;99.90;;;;;;4978642;28;20303;-78
2024/02/11 08:45:47;;;;;;;39.13;16.67;;;8.80;99.90;;;;;;4946493;28;20043;-79
2024/02/11 08:48:13;;;;;;;37.08;16.48;;;8.90;99.90;;;;;;4962041;28;20035;-77
2024/02/11 08:50:40;;;;;;;40.55;17.35;;;8.90;99.90;;;;;;4947655;28;20031;-77
2024/02/11 08:53:07;;;;;;;37.58;15.48;;;8.90;99.90;;;;;;4962883;28;20046;-79
2024/02/11 08:55:33;;;;;;;41.08;15.52;;;9.00;99.90;;;;;;4960609;28;20364;-78
2024/02/11 08:58:00;;;;;;;40.67;15.52;;;9.00;99.90;;;;;;4963253;28;20039;-77
2024/02/11 09:00:29;;;;;;;47.35;18.10;;;9.10;99.90;;;;;;4959580;28;20078;-78
2024/02/11 09:02:56;;;;;;;34.08;15.30;;;9.10;99.90;;;;;;4932573;28;20482;-76
2024/02/11 09:05:24;;;;;;;37.42;15.25;;;9.10;99.90;;;;;;4945106;28;20484;-77
2024/02/11 09:07:50;;;;;;;40.45;15.38;;;9.20;99.90;;;;;;4931327;28;20100;-79
2024/02/11 09:10:17;;;;;;;39.85;15.50;;;9.20;99.90;;;;;;4962691;28;20046;-77
2024/02/11 09:12:43;;;;;;;45.38;17.42;;;9.30;99.90;;;;;;4931060;28;20023;-79
2024/02/11 09:15:10;;;;;;;40.42;17.27;;;9.40;99.90;;;;;;4962102;28;20031;-77
2024/02/11 09:17:42;;;;;;;50.38;21.45;;;9.40;99.90;;;;;;4931100;28;20047;-78
2024/02/11 09:20:12;;;;;;;43.83;20.50;;;9.40;99.90;;;;;;4946886;28;20035;-77
2024/02/11 09:22:39;;;;;;;50.63;23.73;;;9.40;99.90;;;;;;4947696;28;20043;-80
2024/02/11 09:25:09;;;;;;;51.08;23.00;;;9.50;99.90;;;;;;4947406;28;20047;-79
2024/02/11 09:27:35;;;;;;;55.47;24.38;;;9.50;99.90;;;;;;4946849;28;20047;-77
2024/02/11 09:30:02;;;;;;;52.25;23.52;;;9.50;99.90;;;;;;4963281;28;20042;-78
2024/02/11 09:32:29;;;;;;;45.80;21.85;;;9.50;99.90;;;;;;4929241;28;20398;-78
2024/02/11 09:34:56;;;;;;;53.42;23.40;;;9.50;99.90;;;;;;4962207;28;20038;-76
2024/02/11 09:37:22;;;;;;;52.22;23.63;;;9.60;99.90;;;;;;4961033;28;20047;-76
2024/02/11 09:39:49;;;;;;;54.45;24.15;;;9.60;99.90;;;;;;4966083;28;20042;-76
2024/02/11 09:42:20;;;;;;;50.92;26.42;;;9.60;99.90;;;;;;4982238;28;20023;-76
2024/02/11 09:44:49;;;;;;;50.35;23.67;;;9.70;99.90;;;;;;4948954;28;20043;-77
2024/02/11 09:47:17;;;;;;;57.33;27.00;;;9.70;99.90;;;;;;4966595;28;20047;-77
2024/02/11 09:49:46;;;;;;;54.65;24.88;;;9.80;99.90;;;;;;4968158;28;20032;-79
2024/02/11 09:52:15;;;;;;;48.42;23.95;;;9.90;99.90;;;;;;4935160;28;20522;-77
2024/02/11 09:54:46;;;;;;;59.05;26.55;;;10.00;99.90;;;;;;4981865;28;20043;-75
2024/02/11 09:57:15;;;;;;;46.42;24.35;;;10.00;99.90;;;;;;4950434;28;20376;-78
2024/02/11 09:59:42;;;;;;;47.17;24.25;;;10.00;99.90;;;;;;4933128;28;20038;-76
2024/02/11 10:02:16;;;;;;;46.72;23.85;;;10.00;99.90;;;;;;4945808;28;20031;-80
2024/02/11 10:04:44;;;;;;;47.45;22.98;;;10.10;99.90;;;;;;4947375;28;20054;-77
2024/02/11 10:07:23;;;;;;;42.13;22.88;;;10.10;99.90;;;;;;4963173;28;20483;-79
2024/02/11 10:09:50;;;;;;;46.17;24.25;;;10.10;99.90;;;;;;4935171;28;20050;-76
2024/02/11 10:12:18;;;;;;;38.55;22.65;;;10.10;99.90;;;;;;4932742;29;20027;-78
2024/02/11 10:14:53;;;;;;;34.97;21.88;;;10.10;99.90;;;;;;4932589;28;20039;-77
2024/02/11 10:17:21;;;;;;;40.83;22.60;;;10.10;99.90;;;;;;4947595;28;20591;-75
2024/02/11 10:19:51;;;;;;;35.90;20.65;;;10.10;99.90;;;;;;4963891;28;20039;-76
2024/02/11 10:22:18;;;;;;;38.55;22.92;;;10.10;99.90;;;;;;4941944;28;20043;-76
2024/02/11 10:24:47;;;;;;;42.15;23.17;;;10.20;99.90;;;;;;4946510;28;20042;-77
2024/02/11 10:27:14;;;;;;;40.75;24.00;;;10.10;99.90;;;;;;4948639;28;20050;-76
2024/02/11 10:29:42;;;;;;;44.00;27.08;;;10.10;99.90;;;;;;4964440;28;20031;-77
2024/02/11 10:32:13;;;;;;;43.95;24.23;;;10.10;99.90;;;;;;4957353;28;20391;-76
2024/02/11 10:34:41;;;;;;;35.50;21.27;;;10.10;99.90;;;;;;4963252;28;20035;-76
2024/02/11 10:37:12;;;;;;;45.47;24.83;;;10.10;99.90;;;;;;4962096;28;20054;-79
2024/02/11 10:39:40;;;;;;;38.67;22.50;;;10.20;99.90;;;;;;4932846;28;20395;-78
2024/02/11 10:42:10;;;;;;;45.65;24.05;;;10.20;99.90;;;;;;4961768;28;20042;-75
2024/02/11 10:44:38;;;;;;;47.78;26.10;;;10.30;99.90;;;;;;4963125;28;20423;-76
2024/02/11 10:47:08;;;;;;;44.20;23.40;;;10.40;99.90;;;;;;4912270;29;20083;-78
2024/02/11 10:49:35;;;;;;;47.10;28.15;;;10.40;99.90;;;;;;4962660;28;20084;-77
2024/02/11 10:52:12;;;;;;;52.97;29.30;;;10.50;99.90;;;;;;4962855;28;20384;-78
2024/02/11 10:54:41;;;;;;;43.58;26.23;;;10.60;99.90;;;;;;4931523;28;20043;-80
2024/02/11 10:57:12;;;;;;;47.53;25.70;;;10.60;99.90;;;;;;4962214;28;20043;-79
2024/02/11 10:59:48;;;;;;;48.67;28.07;;;10.70;99.90;;;;;;4932307;28;20035;-74
2024/02/11 11:02:15;;;;;;;51.45;29.27;;;10.60;99.90;;;;;;4950045;28;20462;-79
2024/02/11 11:04:44;;;;;;;49.65;29.02;;;10.60;99.90;;;;;;4945569;28;20072;-75
2024/02/11 11:07:13;;;;;;;40.00;24.58;;;10.50;99.90;;;;;;4931060;28;20031;-76
2024/02/11 11:09:41;;;;;;;38.13;24.88;;;10.40;99.90;;;;;;4960809;28;20402;-78
2024/02/11 11:12:08;;;;;;;40.10;24.17;;;10.40;99.90;;;;;;4931372;28;20039;-75
2024/02/11 11:14:45;;;;;;;36.78;21.48;;;10.40;99.90;;;;;;4947628;28;20051;-78
2024/02/11 11:17:24;;;;;;;35.65;21.92;;;10.40;99.90;;;;;;4977721;28;20039;-78
2024/02/11 11:19:52;;;;;;;37.55;20.92;;;10.40;99.90;;;;;;4961491;28;20035;-78
2024/02/11 11:22:28;;;;;;;38.30;21.60;;;10.30;99.90;;;;;;4979097;28;20392;-76
2024/02/11 11:24:58;;;;;;;40.67;22.20;;;10.30;99.90;;;;;;4960074;28;20047;-80
2024/02/11 11:27:25;;;;;;;36.47;19.48;;;10.40;99.90;;;;;;4961803;28;20128;-78
2024/02/11 11:29:54;;;;;;;37.05;20.17;;;10.40;99.90;;;;;;4947302;28;20479;-81
2024/02/11 11:32:23;;;;;;;38.10;20.92;;;10.40;99.90;;;;;;4978132;28;20043;-79
2024/02/11 11:34:53;;;;;;;38.22;20.35;;;10.50;99.90;;;;;;4915058;29;20042;-80
2024/02/11 11:37:22;;;;;;;41.40;20.15;;;10.40;99.90;;;;;;4941391;28;20037;-78
2024/02/11 11:39:50;;;;;;;32.28;18.17;;;10.40;99.90;;;;;;4945555;28;20386;-79
2024/02/11 11:42:17;;;;;;;30.67;18.38;;;10.40;99.90;;;;;;4946082;28;20023;-79
2024/02/11 11:44:44;;;;;;;35.53;19.52;;;10.40;99.90;;;;;;4963034;28;20042;-78
2024/02/11 11:47:13;;;;;;;30.05;17.25;;;10.30;99.90;;;;;;4933401;28;20498;-76
2024/02/11 11:49:42;;;;;;;28.52;16.55;;;10.30;99.90;;;;;;4980833;28;20089;-79
2024/02/11 11:52:10;;;;;;;29.85;17.15;;;10.30;99.90;;;;;;4945898;28;20474;-77
2024/02/11 11:54:37;;;;;;;26.67;16.02;;;10.30;99.90;;;;;;4959681;28;20470;-79
2024/02/11 11:57:08;;;;;;;31.13;17.98;;;10.30;99.90;;;;;;4959543;28;20031;-79
2024/02/11 11:59:34;;;;;;;33.47;17.58;;;10.30;99.90;;;;;;4962106;28;20039;-75
2024/02/11 12:02:02;;;;;;;32.47;18.73;;;10.30;99.90;;;;;;4958681;28;20034;-78
2024/02/11 12:04:32;;;;;;;28.13;17.83;;;10.40;99.90;;;;;;4946989;28;20062;-78
2024/02/11 12:06:58;;;;;;;33.30;18.45;;;10.40;99.90;;;;;;4945351;28;20058;-80
2024/02/11 12:09:26;;;;;;;29.13;16.20;;;10.40;99.90;;;;;;4962205;28;20537;-80
2024/02/11 12:11:54;;;;;;;26.85;15.50;;;10.40;99.90;;;;;;4929809;28;20049;-81
2024/02/11 12:14:21;;;;;;;41.83;19.27;;;10.50;99.90;;;;;;4932106;28;20039;-81
2024/02/11 12:16:48;;;;;;;31.73;17.90;;;10.40;99.90;;;;;;4932334;28;20054;-81
2024/02/11 12:19:14;;;;;;;28.80;15.77;;;10.40;99.90;;;;;;4947194;28;20797;-76
2024/02/11 12:21:41;;;;;;;27.88;16.40;;;10.40;99.90;;;;;;4979941;28;20039;-80
2024/02/11 12:24:08;;;;;;;36.47;19.08;;;10.40;99.90;;;;;;4932086;28;20035;-80
2024/02/11 12:26:38;;;;;;;30.83;16.23;;;10.40;99.90;;;;;;4961354;28;20061;-81
2024/02/11 12:29:04;;;;;;;32.53;18.70;;;10.40;99.90;;;;;;4932704;28;20039;-76
2024/02/11 12:31:30;;;;;;;33.50;18.58;;;10.40;99.90;;;;;;4962785;28;20027;-80
2024/02/11 12:33:57;;;;;;;31.50;18.48;;;10.40;99.90;;;;;;4947956;28;20031;-76
2024/02/11 12:36:27;;;;;;;29.05;16.70;;;10.30;99.90;;;;;;4963652;28;20027;-76